Time;durP1;ratioP1;P1;durP2;ratioP2;P2;SDS_P1;SDS_P2;PMS_P1;PMS_P2;Temp;Humidity;BMP_temperature;BMP_pressure;BME280_temperature;BME280_humidity;BME280_pressure;Samples;Min_cycle;Max_cycle;Signal;HPM_P1;HPM_P2
2022/07/15 00:00:31;;;;;;;14.93;2.80;;;;;;;;;;5073392;28;20439;-39
2022/07/15 00:02:58;;;;;;;8.27;1.85;;;;;;;;;;5073823;28;20021;-40
2022/07/15 00:05:24;;;;;;;4.28;2.25;;;;;;;;;;5073398;28;20048;-40
2022/07/15 00:07:50;;;;;;;5.93;2.42;;;;;;;;;;5073477;28;20016;-38
2022/07/15 00:10:21;;;;;;;5.38;2.33;;;;;;;;;;5073929;28;20438;-40
2022/07/15 00:12:55;;;;;;;8.95;4.05;;;;;;;;;;5055516;28;20522;-39
2022/07/15 00:15:23;;;;;;;9.45;2.15;;;;;;;;;;5073630;28;20024;-38
2022/07/15 00:17:49;;;;;;;7.07;2.97;;;;;;;;;;5073171;28;20105;-39
2022/07/15 00:20:15;;;;;;;8.40;2.60;;;;;;;;;;5072931;28;20094;-38
2022/07/15 00:22:42;;;;;;;7.90;2.58;;;;;;;;;;5073037;28;20556;-42
2022/07/15 00:25:09;;;;;;;6.28;2.47;;;;;;;;;;5054978;28;20040;-39
2022/07/15 00:27:36;;;;;;;5.68;2.85;;;;;;;;;;5073762;28;20024;-39
2022/07/15 00:30:06;;;;;;;9.07;2.88;;;;;;;;;;5073666;28;20110;-38
2022/07/15 00:32:32;;;;;;;5.47;2.65;;;;;;;;;;5073217;28;20047;-38
2022/07/15 00:34:58;;;;;;;14.85;2.88;;;;;;;;;;5073200;28;20329;-39
2022/07/15 00:37:24;;;;;;;4.20;2.53;;;;;;;;;;5054775;28;20206;-38
2022/07/15 00:39:50;;;;;;;6.85;2.53;;;;;;;;;;5072910;28;20578;-39
2022/07/15 00:43:01;;;;;;;9.25;2.90;;;;;;;;;;5072686;28;20480;-41
2022/07/15 00:45:03;;;;;;;9.80;3.45;;;;;;;;;;5061934;28;20086;-39
2022/07/15 00:47:29;;;;;;;11.10;3.65;;;;;;;;;;5072826;28;20104;-38
2022/07/15 00:49:55;;;;;;;6.55;2.67;;;;;;;;;;5054663;28;20034;-39
2022/07/15 00:52:22;;;;;;;7.25;2.58;;;;;;;;;;5073436;28;20024;-42
2022/07/15 00:54:50;;;;;;;10.05;2.22;;;;;;;;;;5076259;28;20033;-40
2022/07/15 00:57:17;;;;;;;10.73;2.95;;;;;;;;;;5076123;28;20145;-39
2022/07/15 00:59:44;;;;;;;9.73;2.83;;;;;;;;;;5076076;28;20021;-38
2022/07/15 01:02:11;;;;;;;14.40;3.53;;;;;;;;;;5076079;28;20092;-38
2022/07/15 01:04:39;;;;;;;7.50;2.53;;;;;;;;;;5075930;28;20028;-39
2022/07/15 01:07:05;;;;;;;10.77;3.15;;;;;;;;;;5075685;28;20048;-38
2022/07/15 01:09:31;;;;;;;6.63;2.28;;;;;;;;;;5075906;28;20021;-39
2022/07/15 01:11:57;;;;;;;4.68;2.42;;;;;;;;;;5076172;28;20372;-38
2022/07/15 01:14:23;;;;;;;6.80;2.50;;;;;;;;;;5075993;28;20013;-39
2022/07/15 01:16:49;;;;;;;7.47;2.50;;;;;;;;;;5076018;28;20034;-41
2022/07/15 01:19:15;;;;;;;11.02;2.75;;;;;;;;;;5075705;28;20029;-38
2022/07/15 01:21:41;;;;;;;6.43;2.70;;;;;;;;;;5075708;28;20480;-39
2022/07/15 01:24:08;;;;;;;7.53;2.45;;;;;;;;;;5076064;28;20131;-39
2022/07/15 01:26:34;;;;;;;8.90;2.67;;;;;;;;;;5075521;28;20483;-38
2022/07/15 01:29:00;;;;;;;8.57;2.88;;;;;;;;;;5075766;28;20439;-40
2022/07/15 01:31:26;;;;;;;10.05;2.92;;;;;;;;;;5075951;28;20453;-38
2022/07/15 01:33:53;;;;;;;6.68;2.72;;;;;;;;;;5075866;28;20353;-40
2022/07/15 01:36:20;;;;;;;16.25;4.65;;;;;;;;;;5075410;28;20044;-39
2022/07/15 01:38:46;;;;;;;7.88;2.47;;;;;;;;;;5075423;28;20036;-39
2022/07/15 01:41:12;;;;;;;12.05;2.40;;;;;;;;;;5075328;28;20029;-38
2022/07/15 01:43:38;;;;;;;6.68;3.35;;;;;;;;;;5075283;28;20027;-38
2022/07/15 01:46:04;;;;;;;5.43;2.38;;;;;;;;;;5075373;28;20028;-47
2022/07/15 01:51:14;;;;;;;6.93;2.28;;;;;;;;;;5075814;28;20549;-40
2022/07/15 01:53:40;;;;;;;10.63;2.22;;;;;;;;;;5075191;28;20021;-38
2022/07/15 01:56:07;;;;;;;6.82;2.33;;;;;;;;;;5075099;28;20151;-38
2022/07/15 01:58:33;;;;;;;7.97;1.92;;;;;;;;;;5075112;28;20103;-39
2022/07/15 02:00:59;;;;;;;10.57;2.75;;;;;;;;;;5074965;28;20444;-39
2022/07/15 02:03:25;;;;;;;11.52;3.88;;;;;;;;;;5075046;28;20044;-39
2022/07/15 02:05:51;;;;;;;3.15;2.25;;;;;;;;;;5074668;28;20036;-39
2022/07/15 02:08:17;;;;;;;7.10;2.97;;;;;;;;;;5074768;28;20380;-39
2022/07/15 02:10:43;;;;;;;11.07;2.80;;;;;;;;;;5075278;28;20051;-38
2022/07/15 02:13:09;;;;;;;8.57;2.28;;;;;;;;;;5074736;28;20020;-37
2022/07/15 02:15:36;;;;;;;7.60;2.10;;;;;;;;;;5056698;28;20384;-38
2022/07/15 02:18:02;;;;;;;10.43;3.42;;;;;;;;;;5056642;28;20170;-37
2022/07/15 02:20:29;;;;;;;12.55;2.30;;;;;;;;;;5074823;28;20029;-39
2022/07/15 02:22:57;;;;;;;7.70;2.38;;;;;;;;;;5074738;28;20432;-39
2022/07/15 02:25:25;;;;;;;9.40;2.30;;;;;;;;;;5074221;28;20055;-38
2022/07/15 02:27:53;;;;;;;8.30;2.53;;;;;;;;;;5074670;28;20518;-39
2022/07/15 02:30:19;;;;;;;7.75;2.95;;;;;;;;;;5056940;28;20107;-38
2022/07/15 02:32:45;;;;;;;10.02;2.40;;;;;;;;;;5074568;28;20074;-39
2022/07/15 02:35:11;;;;;;;7.68;2.15;;;;;;;;;;5074449;28;20017;-37
2022/07/15 02:37:37;;;;;;;11.57;2.58;;;;;;;;;;5074404;28;20357;-38
2022/07/15 02:40:03;;;;;;;6.60;2.22;;;;;;;;;;5074416;28;20039;-37
2022/07/15 02:42:29;;;;;;;6.45;2.95;;;;;;;;;;5074196;28;20029;-40
2022/07/15 02:44:55;;;;;;;6.55;2.38;;;;;;;;;;5074040;28;20065;-38
2022/07/15 02:47:21;;;;;;;8.95;2.97;;;;;;;;;;5073909;28;20032;-38
2022/07/15 02:49:47;;;;;;;10.82;2.38;;;;;;;;;;5055972;28;20123;-38
2022/07/15 02:52:13;;;;;;;6.85;2.30;;;;;;;;;;5055941;28;20155;-38
2022/07/15 02:54:39;;;;;;;5.30;2.33;;;;;;;;;;5055921;28;20464;-38
2022/07/15 02:57:05;;;;;;;12.85;3.30;;;;;;;;;;5073781;28;20028;-38
2022/07/15 02:59:31;;;;;;;18.77;3.10;;;;;;;;;;5055730;28;20038;-38
2022/07/15 03:01:57;;;;;;;7.70;2.40;;;;;;;;;;5074168;28;20025;-39
2022/07/15 03:04:23;;;;;;;7.78;3.25;;;;;;;;;;5055726;28;20032;-39
2022/07/15 03:06:49;;;;;;;5.55;2.70;;;;;;;;;;5073217;28;20052;-38
2022/07/15 03:09:15;;;;;;;7.45;2.83;;;;;;;;;;5073888;28;20310;-38
2022/07/15 03:11:41;;;;;;;5.78;2.20;;;;;;;;;;5073859;28;20031;-38
2022/07/15 20:08:12;;;;;;;2.50;1.50;;;;;;;;;;5070698;28;20416;-47
2022/07/15 20:10:41;;;;;;;2.05;1.38;;;;;;;;;;5070263;28;20103;-49
2022/07/15 20:13:07;;;;;;;5.95;1.83;;;;;;;;;;5070755;28;20024;-48
2022/07/15 20:15:33;;;;;;;4.65;1.40;;;;;;;;;;5070177;28;20033;-46
2022/07/15 20:17:59;;;;;;;3.28;1.38;;;;;;;;;;5070162;28;20035;-46
2022/07/15 20:20:26;;;;;;;5.72;1.40;;;;;;;;;;5070144;28;20020;-48
2022/07/15 20:22:53;;;;;;;4.35;1.58;;;;;;;;;;5070222;28;20361;-47
2022/07/15 20:25:19;;;;;;;5.95;1.75;;;;;;;;;;5070384;28;20032;-46
2022/07/15 20:27:45;;;;;;;6.03;1.65;;;;;;;;;;5070230;28;20046;-47
2022/07/15 20:30:13;;;;;;;2.35;1.00;;;;;;;;;;5070466;28;20040;-47
2022/07/15 20:32:40;;;;;;;1.73;1.20;;;;;;;;;;5070457;28;20472;-47
2022/07/15 20:35:06;;;;;;;1.95;1.38;;;;;;;;;;5068416;28;20021;-47
2022/07/15 20:37:32;;;;;;;2.20;1.00;;;;;;;;;;5069843;28;20028;-46
2022/07/15 20:39:59;;;;;;;3.92;1.23;;;;;;;;;;5069566;28;20114;-47
2022/07/15 20:42:25;;;;;;;2.90;1.42;;;;;;;;;;5069734;28;20023;-47
2022/07/15 20:44:51;;;;;;;1.85;1.05;;;;;;;;;;5069603;28;20148;-46
2022/07/15 20:47:17;;;;;;;2.95;1.00;;;;;;;;;;5069371;28;20028;-49
2022/07/15 20:49:43;;;;;;;5.13;2.25;;;;;;;;;;5070008;28;20098;-48
2022/07/15 20:52:09;;;;;;;4.22;2.35;;;;;;;;;;5069450;28;20025;-50
2022/07/15 20:54:36;;;;;;;4.50;2.10;;;;;;;;;;5069067;28;20360;-47
2022/07/15 20:57:01;;;;;;;6.03;2.58;;;;;;;;;;5069148;28;20070;-45
2022/07/15 20:59:27;;;;;;;6.47;1.90;;;;;;;;;;5069340;28;20516;-46
2022/07/15 21:01:55;;;;;;;2.20;1.52;;;;;;;;;;5069422;28;20069;-46
2022/07/15 21:04:21;;;;;;;5.50;1.60;;;;;;;;;;5069346;28;20021;-48
2022/07/15 21:06:49;;;;;;;7.75;1.60;;;;;;;;;;5068654;28;20175;-45
2022/07/15 21:09:15;;;;;;;2.05;1.38;;;;;;;;;;5068734;28;20025;-46
2022/07/15 21:11:42;;;;;;;4.38;1.50;;;;;;;;;;5069110;28;20083;-48
2022/07/15 21:14:08;;;;;;;5.15;1.50;;;;;;;;;;5069383;28;20419;-47
2022/07/15 21:16:34;;;;;;;6.22;2.20;;;;;;;;;;5068820;28;20029;-46
2022/07/15 21:19:01;;;;;;;1.75;1.20;;;;;;;;;;5058646;28;20083;-46
2022/07/15 21:21:27;;;;;;;5.70;1.88;;;;;;;;;;5056262;28;20342;-46
2022/07/15 21:23:53;;;;;;;4.05;1.38;;;;;;;;;;5055664;28;20021;-46
2022/07/15 21:29:04;;;;;;;3.95;1.90;;;;;;;;;;5055735;28;20044;-46
2022/07/15 21:31:30;;;;;;;2.92;1.58;;;;;;;;;;5055743;28;20079;-45
2022/07/15 21:33:56;;;;;;;4.55;2.25;;;;;;;;;;5055598;28;20083;-46
2022/07/15 21:36:22;;;;;;;3.97;1.80;;;;;;;;;;5055334;28;20020;-47
2022/07/15 21:38:48;;;;;;;5.88;2.00;;;;;;;;;;5055828;28;20021;-48
2022/07/15 21:41:14;;;;;;;9.77;3.45;;;;;;;;;;5055423;28;20029;-46
2022/07/15 21:43:40;;;;;;;6.50;2.45;;;;;;;;;;5055607;28;20471;-45
2022/07/15 21:46:06;;;;;;;4.45;2.10;;;;;;;;;;5055098;28;20040;-46
2022/07/15 21:48:32;;;;;;;4.88;2.22;;;;;;;;;;5055097;28;20202;-47
2022/07/15 21:50:58;;;;;;;4.35;2.70;;;;;;;;;;5055817;28;20403;-48
2022/07/15 21:53:25;;;;;;;2.38;2.17;;;;;;;;;;5055959;28;20025;-46
2022/07/15 21:55:52;;;;;;;3.80;2.53;;;;;;;;;;5054734;28;20144;-46
2022/07/15 21:58:19;;;;;;;3.78;2.00;;;;;;;;;;5053707;28;20147;-50
2022/07/15 22:00:46;;;;;;;4.20;2.08;;;;;;;;;;5054310;28;20400;-45
2022/07/15 22:03:13;;;;;;;13.38;2.67;;;;;;;;;;5054836;28;20049;-46
2022/07/15 22:05:40;;;;;;;2.22;1.90;;;;;;;;;;5054810;28;20029;-47
2022/07/15 22:08:06;;;;;;;7.95;2.42;;;;;;;;;;5053284;28;20045;-46
2022/07/15 22:10:33;;;;;;;3.13;1.75;;;;;;;;;;5054858;28;20507;-45
2022/07/15 22:13:00;;;;;;;2.80;1.88;;;;;;;;;;5054767;28;20032;-47
2022/07/15 22:15:26;;;;;;;3.95;1.45;;;;;;;;;;5055095;28;20100;-46
2022/07/15 22:17:52;;;;;;;3.83;2.42;;;;;;;;;;5054637;28;20072;-47
2022/07/15 22:20:18;;;;;;;7.20;2.70;;;;;;;;;;5054753;28;20097;-46
2022/07/15 22:22:45;;;;;;;6.85;2.85;;;;;;;;;;5054515;28;20029;-45
2022/07/15 22:25:11;;;;;;;5.57;2.35;;;;;;;;;;5053199;28;20055;-46
2022/07/15 22:27:37;;;;;;;2.95;2.65;;;;;;;;;;5054849;28;20072;-47
2022/07/15 22:30:04;;;;;;;3.63;2.70;;;;;;;;;;5054072;28;20033;-47
2022/07/15 22:32:30;;;;;;;5.43;2.80;;;;;;;;;;5054410;28;20362;-47
2022/07/15 22:34:56;;;;;;;3.08;1.80;;;;;;;;;;5054975;28;20452;-48
2022/07/15 22:37:22;;;;;;;5.10;2.58;;;;;;;;;;5053060;28;20025;-45
2022/07/15 22:39:48;;;;;;;9.65;2.35;;;;;;;;;;5054324;28;20028;-47
2022/07/15 22:42:14;;;;;;;3.90;2.40;;;;;;;;;;5054196;28;20354;-45
2022/07/15 22:44:40;;;;;;;7.25;2.47;;;;;;;;;;5054139;28;20454;-47
2022/07/15 22:47:06;;;;;;;2.67;2.20;;;;;;;;;;5054680;28;20120;-46
2022/07/15 22:49:33;;;;;;;3.85;2.15;;;;;;;;;;5053918;28;20025;-46
2022/07/15 22:51:59;;;;;;;4.28;2.28;;;;;;;;;;5054242;28;20037;-48
2022/07/15 22:54:25;;;;;;;3.78;1.92;;;;;;;;;;5053740;28;20108;-45
2022/07/15 22:56:52;;;;;;;10.05;2.88;;;;;;;;;;5053774;28;20029;-47
2022/07/15 22:59:18;;;;;;;2.92;1.80;;;;;;;;;;5052998;28;20560;-46
2022/07/15 23:01:44;;;;;;;3.83;1.77;;;;;;;;;;5052398;28;20045;-47
2022/07/15 23:04:10;;;;;;;4.25;1.90;;;;;;;;;;5053828;28;20477;-46
2022/07/15 23:06:37;;;;;;;4.07;2.05;;;;;;;;;;5052282;28;20515;-46
2022/07/15 23:09:03;;;;;;;1.98;1.60;;;;;;;;;;5053854;28;20032;-45
2022/07/15 23:11:29;;;;;;;2.20;1.48;;;;;;;;;;5054086;28;20048;-46
2022/07/15 23:13:55;;;;;;;2.75;1.88;;;;;;;;;;5053787;28;20032;-46
2022/07/15 23:16:21;;;;;;;5.53;2.38;;;;;;;;;;5053637;28;20029;-46
2022/07/15 23:18:47;;;;;;;4.55;1.95;;;;;;;;;;5053459;28;20476;-46
2022/07/15 23:21:13;;;;;;;6.18;1.98;;;;;;;;;;5053864;28;20504;-46
2022/07/15 23:23:39;;;;;;;6.18;3.67;;;;;;;;;;5053480;28;20061;-50
2022/07/15 23:26:05;;;;;;;22.02;4.50;;;;;;;;;;5053597;28;20469;-45
2022/07/15 23:28:32;;;;;;;4.03;2.28;;;;;;;;;;5053276;28;20033;-46
2022/07/15 23:30:58;;;;;;;5.25;2.22;;;;;;;;;;5053280;28;20027;-47
2022/07/15 23:33:23;;;;;;;4.68;2.33;;;;;;;;;;5053294;28;20104;-46
2022/07/15 23:35:50;;;;;;;3.35;1.85;;;;;;;;;;5053242;28;20025;-46
2022/07/15 23:38:15;;;;;;;5.50;2.20;;;;;;;;;;5053307;28;20029;-46
2022/07/15 23:40:41;;;;;;;6.25;2.08;;;;;;;;;;5052852;28;20032;-46
2022/07/15 23:43:07;;;;;;;6.55;2.40;;;;;;;;;;5053154;28;20083;-45
2022/07/15 23:45:33;;;;;;;4.68;2.55;;;;;;;;;;5053051;28;20078;-47
2022/07/15 23:47:59;;;;;;;3.97;2.30;;;;;;;;;;5053064;28;20025;-47
2022/07/15 23:50:25;;;;;;;3.13;2.00;;;;;;;;;;5053231;28;20036;-47
2022/07/15 23:52:52;;;;;;;7.15;2.20;;;;;;;;;;5053590;28;20029;-46
2022/07/15 23:55:18;;;;;;;6.93;2.67;;;;;;;;;;5053370;28;20021;-46
2022/07/15 23:57:45;;;;;;;7.07;3.03;;;;;;;;;;5052852;28;20110;-48
